createdAt,value
2023-04-15T00:01:58.625Z,15.82
2023-04-15T00:04:26.288Z,14.90
2023-04-15T00:06:53.847Z,14.65
2023-04-15T00:09:21.845Z,14.60
2023-04-15T00:11:50.624Z,14.40
2023-04-15T00:14:17.894Z,15.70
2023-04-15T00:16:44.972Z,15.45
2023-04-15T00:19:12.344Z,15.95
2023-04-15T00:21:39.378Z,14.35
2023-04-15T00:24:06.638Z,15.45
2023-04-15T00:26:33.760Z,14.38
2023-04-15T00:29:01.535Z,16.10
2023-04-15T00:31:28.789Z,14.40
2023-04-15T00:33:56.086Z,15.32
2023-04-15T00:36:23.455Z,15.18
2023-04-15T00:38:51.000Z,15.63
2023-04-15T00:41:19.405Z,16.15
2023-04-15T00:43:46.725Z,15.40
2023-04-15T00:46:15.868Z,14.95
2023-04-15T00:48:44.045Z,14.90
2023-04-15T00:51:11.052Z,15.55
2023-04-15T00:53:38.392Z,15.60
2023-04-15T00:56:06.509Z,14.07
2023-04-15T00:58:33.776Z,15.43
2023-04-15T01:01:01.146Z,15.18
2023-04-15T01:03:31.276Z,14.77
2023-04-15T01:05:58.623Z,14.95
2023-04-15T01:08:29.407Z,15.07
2023-04-15T01:10:58.658Z,15.15
2023-04-15T01:13:26.659Z,15.80
2023-04-15T01:15:54.092Z,15.18
2023-04-15T01:18:21.791Z,14.80
2023-04-15T01:20:48.798Z,14.68
2023-04-15T01:24:06.540Z,14.30
2023-04-15T01:26:34.365Z,14.73
2023-04-15T01:29:02.107Z,15.60
2023-04-15T01:31:29.465Z,14.75
2023-04-15T01:33:58.639Z,14.70
2023-04-15T01:36:44.333Z,14.88
2023-04-15T01:39:11.653Z,15.48
2023-04-15T01:41:38.573Z,14.50
2023-04-15T01:44:08.024Z,13.90
2023-04-15T01:46:37.061Z,14.10
2023-04-15T01:49:06.207Z,14.10
2023-04-15T01:51:35.272Z,14.75
2023-04-15T01:54:04.092Z,14.48
2023-04-15T01:56:32.355Z,14.75
2023-04-15T01:59:01.767Z,14.50
2023-04-15T02:01:30.458Z,14.02
2023-04-15T02:04:01.264Z,14.63
2023-04-15T02:06:29.574Z,14.52
2023-04-15T02:08:59.199Z,13.43
2023-04-15T02:11:28.487Z,13.65
2023-04-15T02:13:57.944Z,13.25
2023-04-15T02:16:27.347Z,13.23
2023-04-15T02:18:55.992Z,13.73
2023-04-15T02:21:24.165Z,14.18
2023-04-15T02:23:54.175Z,14.52
2023-04-15T02:26:22.880Z,13.75
2023-04-15T02:28:51.633Z,14.13
2023-04-15T02:31:21.178Z,14.10
2023-04-15T02:33:49.724Z,14.35
2023-04-15T02:36:18.293Z,14.20
2023-04-15T02:38:46.856Z,13.73
2023-04-15T02:41:17.837Z,13.50
2023-04-15T02:43:47.668Z,13.55
2023-04-15T02:46:16.916Z,13.35
2023-04-15T02:48:45.925Z,13.90
2023-04-15T02:51:19.947Z,13.73
2023-04-15T02:53:49.436Z,13.95
2023-04-15T02:56:19.368Z,13.48
2023-04-15T02:58:50.556Z,13.90
2023-04-15T03:01:20.763Z,13.45
2023-04-15T03:03:49.622Z,14.20
2023-04-15T03:06:17.947Z,13.93
2023-04-15T03:08:46.692Z,14.02
2023-04-15T03:11:16.133Z,13.55
2023-04-15T03:13:44.629Z,12.88
2023-04-15T03:16:25.800Z,14.27
2023-04-15T03:21:24.087Z,14.73
2023-04-15T03:23:53.214Z,14.10
2023-04-15T03:26:39.758Z,13.88
2023-04-15T03:29:13.594Z,13.77
2023-04-15T03:31:42.523Z,14.93
2023-04-15T03:34:11.114Z,13.88
2023-04-15T03:36:39.277Z,14.95
2023-04-15T03:39:08.065Z,15.20
2023-04-15T03:41:36.293Z,15.60
2023-04-15T03:44:04.948Z,15.25
2023-04-15T03:46:33.282Z,15.05
2023-04-15T03:49:02.475Z,14.43
2023-04-15T03:51:31.684Z,14.03
2023-04-15T03:54:00.235Z,14.68
2023-04-15T03:56:28.469Z,14.27
2023-04-15T03:58:56.925Z,15.15
2023-04-15T04:01:25.147Z,15.57
2023-04-15T04:03:53.840Z,14.60
2023-04-15T04:06:22.164Z,13.80
2023-04-15T04:08:50.707Z,14.50
2023-04-15T04:11:18.954Z,14.23
2023-04-15T04:13:47.398Z,14.65
2023-04-15T04:16:15.919Z,15.75
2023-04-15T04:18:44.492Z,14.48
2023-04-15T04:21:12.813Z,14.82
2023-04-15T04:23:41.343Z,15.13
2023-04-15T04:26:09.560Z,15.13
2023-04-15T04:28:40.521Z,15.02
2023-04-15T04:31:08.741Z,14.30
2023-04-15T04:33:37.271Z,14.23
2023-04-15T04:36:06.011Z,14.75
2023-04-15T04:38:34.588Z,14.47
2023-04-15T04:41:02.886Z,14.18
2023-04-15T04:43:31.396Z,14.85
2023-04-15T04:45:59.625Z,14.60
2023-04-15T04:48:28.266Z,14.32
2023-04-15T04:50:56.684Z,14.68
2023-04-15T04:53:25.208Z,14.43
2023-04-15T04:55:53.863Z,14.50
2023-04-15T04:58:22.372Z,15.23
2023-04-15T05:00:51.114Z,15.15
2023-04-15T05:03:19.910Z,15.57
2023-04-15T05:05:49.357Z,23.65
2023-04-15T05:08:17.838Z,21.38
2023-04-15T05:10:46.166Z,15.75
2023-04-15T05:13:14.643Z,15.35
2023-04-15T05:15:43.340Z,15.18
2023-04-15T05:18:11.861Z,15.43
2023-04-15T05:20:40.474Z,15.55
2023-04-15T05:23:09.034Z,16.45
2023-04-15T05:25:37.261Z,15.60
2023-04-15T05:28:06.134Z,15.43
2023-04-15T05:30:34.429Z,15.35
2023-04-15T05:33:03.821Z,14.98
2023-04-15T05:35:32.203Z,14.35
2023-04-15T05:38:00.793Z,15.95
2023-04-15T05:40:30.151Z,15.10
2023-04-15T05:42:58.749Z,14.20
2023-04-15T05:45:27.342Z,14.77
2023-04-15T05:47:55.871Z,14.20
2023-04-15T05:50:24.201Z,14.57
2023-04-15T05:52:52.727Z,16.02
2023-04-15T05:55:21.418Z,15.10
2023-04-15T05:57:49.994Z,13.67
2023-04-15T06:00:18.593Z,14.30
2023-04-15T06:02:47.742Z,14.50
2023-04-15T06:05:16.534Z,15.35
2023-04-15T06:07:47.257Z,14.07
2023-04-15T06:10:16.769Z,13.65
2023-04-15T06:12:45.951Z,14.00
2023-04-15T06:15:14.278Z,14.18
2023-04-15T06:17:42.911Z,13.50
2023-04-15T06:20:11.941Z,13.25
2023-04-15T06:22:40.815Z,12.65
2023-04-15T06:25:09.851Z,13.00
2023-04-15T06:27:38.605Z,12.70
2023-04-15T06:30:07.958Z,11.70
2023-04-15T06:32:36.668Z,12.77
2023-04-15T06:35:05.546Z,11.02
2023-04-15T06:37:34.143Z,12.23
2023-04-15T06:40:02.900Z,12.25
2023-04-15T06:42:32.201Z,12.25
2023-04-15T06:45:00.873Z,12.05
2023-04-15T06:47:29.568Z,11.38
2023-04-15T06:49:58.034Z,11.63
2023-04-15T06:52:26.689Z,11.55
2023-04-15T06:54:54.994Z,10.70
2023-04-15T06:57:23.466Z,10.55
2023-04-15T06:59:53.907Z,10.48
2023-04-15T07:02:22.795Z,12.32
2023-04-15T07:04:51.157Z,10.35
2023-04-15T07:07:19.787Z,10.73
2023-04-15T07:09:48.249Z,10.55
2023-04-15T07:12:16.846Z,10.40
2023-04-15T07:14:45.269Z,10.93
2023-04-15T07:17:13.919Z,10.93
2023-04-15T07:19:42.210Z,11.15
2023-04-15T07:22:11.110Z,11.43
2023-04-15T07:24:39.330Z,12.35
2023-04-15T07:27:08.459Z,11.65
2023-04-15T07:29:36.967Z,10.43
2023-04-15T07:32:05.950Z,11.07
2023-04-15T07:34:34.285Z,10.02
2023-04-15T07:37:03.557Z,10.93
2023-04-15T07:39:32.205Z,10.18
2023-04-15T07:42:00.794Z,10.88
2023-04-15T07:44:29.113Z,9.68
2023-04-15T07:46:57.782Z,9.77
2023-04-15T07:49:26.106Z,9.60
2023-04-15T07:51:54.996Z,9.18
2023-04-15T07:54:23.288Z,8.85
2023-04-15T07:56:51.754Z,8.57
2023-04-15T07:59:20.154Z,9.18
2023-04-15T08:01:49.125Z,8.30
2023-04-15T08:04:17.529Z,8.35
2023-04-15T08:06:48.026Z,8.45
2023-04-15T08:09:16.705Z,9.00
2023-04-15T08:11:46.066Z,8.68
2023-04-15T08:14:14.558Z,8.47
2023-04-15T08:16:43.114Z,7.97
2023-04-15T08:19:11.393Z,8.25
2023-04-15T08:21:40.688Z,7.65
2023-04-15T08:24:08.930Z,7.60
2023-04-15T08:26:37.447Z,7.60
2023-04-15T08:29:05.777Z,7.88
2023-04-15T08:31:34.538Z,8.32
2023-04-15T08:34:03.562Z,8.00
2023-04-15T08:36:32.598Z,7.45
2023-04-15T08:39:04.957Z,7.45
2023-04-15T08:41:48.065Z,7.45
2023-04-15T08:44:17.761Z,7.60
2023-04-15T08:49:17.811Z,7.47
2023-04-15T08:51:46.766Z,7.93
2023-04-15T08:54:15.771Z,7.50
2023-04-15T08:56:44.999Z,7.93
2023-04-15T08:59:13.949Z,7.93
2023-04-15T09:01:42.951Z,8.38
2023-04-15T09:04:12.477Z,8.18
2023-04-15T09:06:41.608Z,7.50
2023-04-15T09:09:09.975Z,7.90
2023-04-15T09:11:38.595Z,7.82
2023-04-15T09:14:06.969Z,8.18
2023-04-15T09:17:00.451Z,8.27
2023-04-15T09:19:29.848Z,8.02
2023-04-15T09:21:59.552Z,8.02
2023-04-15T09:24:37.584Z,8.02
2023-04-15T09:27:06.933Z,7.85
2023-04-15T09:29:37.120Z,8.35
2023-04-15T09:32:13.782Z,7.82
2023-04-15T09:34:43.071Z,8.30
2023-04-15T09:37:28.618Z,8.35
2023-04-15T09:40:00.190Z,8.55
2023-04-15T09:42:28.946Z,7.95
2023-04-15T09:45:08.546Z,8.40
2023-04-15T09:47:37.492Z,8.75
2023-04-15T09:50:06.236Z,7.88
2023-04-15T09:52:43.051Z,7.90
2023-04-15T09:55:13.083Z,7.78
2023-04-15T09:57:41.884Z,7.93
2023-04-15T10:00:11.415Z,8.10
2023-04-15T10:05:12.174Z,7.85
2023-04-15T10:07:42.867Z,7.90
2023-04-15T10:10:11.830Z,7.78
2023-04-15T10:12:42.370Z,7.43
2023-04-15T10:15:17.130Z,7.80
2023-04-15T10:17:50.942Z,7.32
2023-04-15T10:20:19.888Z,7.00
2023-04-15T10:22:49.276Z,7.07
2023-04-15T10:25:19.165Z,7.40
2023-04-15T10:27:48.823Z,7.25
2023-04-15T10:30:18.185Z,7.32
2023-04-15T10:32:48.256Z,7.10
2023-04-15T10:35:18.150Z,7.20
2023-04-15T10:37:46.863Z,6.95
2023-04-15T10:40:32.023Z,6.85
2023-04-15T10:43:02.461Z,6.93
2023-04-15T10:45:36.786Z,6.80
2023-04-15T10:48:08.253Z,6.93
2023-04-15T10:50:37.711Z,7.10
2023-04-15T10:53:06.349Z,7.10
2023-04-15T10:55:35.336Z,7.15
2023-04-15T10:58:04.075Z,6.63
2023-04-15T11:00:33.222Z,7.18
2023-04-15T11:03:09.543Z,7.22
2023-04-15T11:05:41.833Z,6.20
2023-04-15T11:08:11.687Z,6.32
2023-04-15T11:10:40.052Z,7.03
2023-04-15T11:13:11.542Z,6.35
2023-04-15T11:15:42.306Z,7.38
2023-04-15T11:18:13.111Z,7.25
2023-04-15T11:20:45.314Z,7.72
2023-04-15T11:23:16.993Z,7.78
2023-04-15T11:28:14.648Z,7.10
2023-04-15T11:30:43.679Z,9.23
2023-04-15T11:33:13.896Z,7.75
2023-04-15T11:38:14.122Z,13.98
2023-04-15T11:40:46.240Z,23.27
2023-04-15T11:43:21.128Z,10.23
2023-04-15T11:45:53.899Z,7.15
2023-04-15T11:48:25.101Z,6.57
2023-04-15T11:51:04.667Z,6.22
2023-04-15T11:53:38.400Z,6.22
2023-04-15T11:56:06.176Z,6.32
2023-04-15T11:58:37.968Z,6.13
2023-04-15T12:01:06.240Z,6.18
2023-04-15T12:03:38.032Z,6.32
2023-04-15T12:06:06.323Z,6.85
2023-04-15T12:09:08.719Z,6.03
2023-04-15T12:11:41.610Z,5.75
2023-04-15T12:14:30.067Z,5.60
2023-04-15T12:17:02.553Z,6.32
2023-04-15T12:19:35.109Z,6.95
2023-04-15T12:22:05.415Z,7.00
2023-04-15T12:24:34.508Z,9.90
2023-04-15T12:27:04.180Z,7.28
2023-04-15T12:32:11.783Z,7.25
2023-04-15T12:34:53.242Z,6.72
2023-04-15T12:37:21.210Z,6.53
2023-04-15T12:39:50.662Z,6.53
2023-04-15T12:42:18.191Z,6.82
2023-04-15T12:44:45.920Z,6.32
2023-04-15T12:47:13.500Z,6.32
2023-04-15T12:49:41.400Z,7.18
2023-04-15T12:52:08.646Z,6.80
2023-04-15T12:54:36.336Z,7.38
2023-04-15T12:57:06.979Z,7.70
2023-04-15T12:59:36.024Z,8.07
2023-04-15T13:02:04.139Z,7.75
2023-04-15T13:04:33.066Z,7.38
2023-04-15T13:07:00.239Z,7.53
2023-04-15T13:09:27.587Z,7.60
2023-04-15T13:11:54.985Z,8.20
2023-04-15T13:14:22.549Z,7.75
2023-04-15T13:16:49.865Z,8.15
2023-04-15T13:19:17.472Z,8.57
2023-04-15T13:21:44.730Z,8.05
2023-04-15T13:24:12.208Z,8.02
2023-04-15T13:26:39.552Z,8.18
2023-04-15T13:29:09.499Z,8.63
2023-04-15T13:31:36.791Z,8.70
2023-04-15T13:34:04.589Z,8.18
2023-04-15T13:36:31.949Z,9.15
2023-04-15T13:39:00.120Z,8.73
2023-04-15T13:41:27.207Z,9.55
2023-04-15T13:43:55.304Z,9.55
2023-04-15T13:46:24.189Z,10.05
2023-04-15T13:48:53.739Z,8.68
2023-04-15T13:51:21.244Z,9.63
2023-04-15T13:53:49.034Z,9.07
2023-04-15T13:56:16.354Z,9.73
2023-04-15T13:58:44.114Z,10.65
2023-04-15T14:01:11.470Z,10.57
2023-04-15T14:03:39.130Z,10.20
2023-04-15T14:06:07.058Z,10.02
2023-04-15T14:08:34.835Z,11.10
2023-04-15T14:11:02.220Z,10.52
2023-04-15T14:13:29.797Z,10.18
2023-04-15T14:15:57.734Z,10.00
2023-04-15T14:18:25.882Z,9.63
2023-04-15T14:20:53.485Z,9.93
2023-04-15T14:23:21.501Z,9.85
2023-04-15T14:25:48.667Z,9.65
2023-04-15T14:28:16.542Z,11.18
2023-04-15T14:30:43.817Z,10.55
2023-04-15T14:33:11.611Z,10.90
2023-04-15T14:35:39.160Z,9.75
2023-04-15T14:38:10.481Z,11.30
2023-04-15T14:40:37.762Z,10.65
2023-04-15T14:43:05.212Z,9.80
2023-04-15T14:45:32.267Z,10.25
2023-04-15T14:47:59.914Z,9.57
2023-04-15T14:50:27.070Z,9.15
2023-04-15T14:52:54.349Z,9.43
2023-04-15T14:55:21.432Z,9.32
2023-04-15T14:57:49.052Z,9.07
2023-04-15T15:00:17.520Z,9.23
2023-04-15T15:02:45.329Z,7.93
2023-04-15T15:05:12.883Z,9.02
2023-04-15T15:07:43.424Z,6.88
2023-04-15T15:12:38.270Z,5.72
2023-04-15T15:15:15.570Z,7.05
2023-04-15T15:17:43.601Z,7.10
2023-04-15T15:20:11.139Z,7.63
2023-04-15T15:22:38.621Z,7.30
2023-04-15T15:25:06.289Z,7.53
2023-04-15T15:27:33.872Z,7.88
2023-04-15T15:30:01.019Z,7.82
2023-04-15T15:32:28.653Z,7.63
2023-04-15T15:34:55.923Z,6.45
2023-04-15T15:37:23.456Z,6.95
2023-04-15T15:39:52.590Z,7.00
2023-04-15T15:42:20.227Z,6.20
2023-04-15T15:44:49.321Z,6.45
2023-04-15T15:47:17.034Z,11.27
2023-04-15T15:49:44.824Z,12.73
2023-04-15T15:52:12.979Z,13.57
2023-04-15T15:54:41.350Z,12.43
2023-04-15T15:57:10.581Z,8.73
2023-04-15T15:59:43.661Z,8.20
2023-04-15T16:02:12.658Z,9.13
2023-04-15T16:04:41.184Z,9.02
2023-04-15T16:07:10.585Z,9.67
2023-04-15T16:09:40.565Z,9.85
2023-04-15T16:12:08.490Z,8.00
2023-04-15T16:14:36.518Z,9.40
2023-04-15T16:17:03.997Z,8.10
2023-04-15T16:19:31.320Z,7.75
2023-04-15T16:22:00.599Z,7.60
2023-04-15T16:24:29.421Z,7.13
2023-04-15T16:26:59.413Z,6.73
2023-04-15T16:29:26.632Z,6.13
2023-04-15T16:31:55.864Z,6.47
2023-04-15T16:34:23.234Z,6.82
2023-04-15T16:36:50.927Z,6.70
2023-04-15T16:39:19.757Z,6.60
2023-04-15T16:41:47.321Z,5.28
2023-04-15T16:44:14.890Z,5.78
2023-04-15T16:46:42.672Z,6.28
2023-04-15T16:49:10.117Z,8.35
2023-04-15T16:51:37.732Z,6.35
2023-04-15T16:54:05.327Z,8.10
2023-04-15T16:56:33.348Z,6.70
2023-04-15T16:59:00.909Z,7.05
2023-04-15T17:01:29.194Z,5.85
2023-04-15T17:03:56.832Z,7.60
2023-04-15T17:06:24.943Z,8.25
2023-04-15T17:08:52.428Z,6.40
2023-04-15T17:11:20.134Z,7.20
2023-04-15T17:13:47.919Z,5.95
2023-04-15T17:16:16.096Z,5.38
2023-04-15T17:18:44.755Z,5.70
2023-04-15T17:21:18.607Z,5.97
2023-04-15T17:23:52.294Z,5.70
2023-04-15T17:26:20.862Z,5.15
2023-04-15T17:28:51.717Z,4.85
2023-04-15T17:31:25.305Z,4.63
2023-04-15T17:34:13.958Z,4.75
2023-04-15T17:37:03.763Z,5.43
2023-04-15T17:39:52.298Z,5.18
2023-04-15T17:42:40.319Z,5.70
2023-04-15T17:45:27.803Z,6.05
2023-04-15T17:48:15.720Z,5.90
2023-04-15T17:51:03.746Z,5.25
2023-04-15T17:53:52.043Z,5.72
2023-04-15T17:56:39.682Z,5.65
2023-04-15T17:59:28.058Z,5.30
2023-04-15T18:02:15.553Z,5.32
2023-04-15T18:05:03.677Z,5.03
2023-04-15T18:07:52.426Z,5.00
2023-04-15T18:10:39.961Z,5.60
2023-04-15T18:13:27.380Z,6.28
2023-04-15T18:16:15.526Z,5.80
2023-04-15T18:19:02.856Z,5.93
2023-04-15T18:21:31.795Z,5.57
2023-04-15T18:23:59.157Z,5.57
2023-04-15T18:26:28.520Z,6.15
2023-04-15T18:28:55.932Z,5.70
2023-04-15T18:31:24.261Z,5.13
2023-04-15T18:33:51.816Z,5.57
2023-04-15T18:36:19.575Z,4.85
2023-04-15T18:38:46.905Z,5.15
2023-04-15T18:41:14.843Z,5.32
2023-04-15T18:43:42.564Z,4.28
2023-04-15T18:46:14.923Z,4.85
2023-04-15T18:48:42.560Z,5.05
2023-04-15T18:51:10.660Z,5.20
2023-04-15T18:53:38.780Z,5.00
2023-04-15T18:56:07.131Z,5.78
2023-04-15T18:59:27.657Z,5.95
2023-04-15T19:01:22.484Z,5.72
2023-04-15T19:03:50.342Z,5.28
2023-04-15T19:06:18.558Z,6.05
2023-04-15T19:08:46.303Z,5.18
2023-04-15T19:11:14.055Z,5.45
2023-04-15T19:13:41.279Z,5.60
2023-04-15T19:16:08.940Z,5.57
2023-04-15T19:18:36.167Z,5.38
2023-04-15T19:21:04.112Z,5.65
2023-04-15T19:23:32.191Z,6.18
2023-04-15T19:26:00.498Z,5.38
2023-04-15T19:28:28.407Z,5.55
2023-04-15T19:30:58.025Z,6.00
2023-04-15T19:33:31.178Z,6.43
2023-04-15T19:36:04.246Z,5.80
2023-04-15T19:38:33.002Z,6.03
2023-04-15T19:41:01.043Z,5.95
2023-04-15T19:43:28.795Z,6.80
2023-04-15T19:45:57.230Z,7.13
2023-04-15T19:48:25.352Z,6.93
2023-04-15T19:50:53.446Z,7.40
2023-04-15T19:53:21.391Z,7.82
2023-04-15T19:55:49.397Z,7.45
2023-04-15T19:58:16.725Z,7.93
2023-04-15T20:00:45.350Z,8.00
2023-04-15T20:03:13.026Z,8.50
2023-04-15T20:05:41.909Z,8.30
2023-04-15T20:08:09.961Z,8.70
2023-04-15T20:10:37.999Z,8.60
2023-04-15T20:13:05.865Z,8.68
2023-04-15T20:15:33.801Z,8.88
2023-04-15T20:18:01.685Z,9.20
2023-04-15T20:20:29.249Z,9.10
2023-04-15T20:22:57.154Z,8.77
2023-04-15T20:25:24.789Z,8.38
2023-04-15T20:27:52.198Z,9.52
2023-04-15T20:30:20.140Z,8.43
2023-04-15T20:32:47.906Z,9.05
2023-04-15T20:35:16.055Z,8.30
2023-04-15T20:37:45.084Z,8.63
2023-04-15T20:40:15.307Z,8.50
2023-04-15T20:42:43.763Z,8.77
2023-04-15T20:45:11.557Z,8.35
2023-04-15T20:47:39.028Z,8.88
2023-04-15T20:50:07.420Z,8.45
2023-04-15T20:52:34.576Z,9.05
2023-04-15T20:55:02.214Z,8.57
2023-04-15T20:57:30.500Z,8.25
2023-04-15T20:59:58.608Z,8.73
2023-04-15T21:02:26.329Z,9.00
2023-04-15T21:04:54.624Z,8.07
2023-04-15T21:07:22.066Z,8.38
2023-04-15T21:09:49.754Z,6.60
2023-04-15T21:12:17.052Z,6.18
2023-04-15T21:14:45.227Z,6.60
2023-04-15T21:17:12.868Z,6.95
2023-04-15T21:19:40.701Z,6.00
2023-04-15T21:22:07.797Z,6.70
2023-04-15T21:24:35.182Z,5.97
2023-04-15T21:27:02.473Z,7.07
2023-04-15T21:29:30.132Z,6.40
2023-04-15T21:31:57.396Z,6.97
2023-04-15T21:34:24.976Z,6.60
2023-04-15T21:36:52.244Z,7.35
2023-04-15T21:39:19.841Z,7.90
2023-04-15T21:41:48.334Z,6.95
2023-04-15T21:44:15.844Z,6.95
2023-04-15T21:46:45.786Z,6.95
2023-04-15T21:49:14.012Z,7.28
2023-04-15T21:51:41.073Z,6.95
2023-04-15T21:54:08.385Z,6.82
2023-04-15T21:56:35.470Z,7.10
2023-04-15T21:59:03.019Z,6.20
2023-04-15T22:01:30.247Z,7.07
2023-04-15T22:03:57.886Z,6.82
2023-04-15T22:06:25.323Z,7.60
2023-04-15T22:08:57.538Z,7.10
2023-04-15T22:11:30.340Z,8.00
2023-04-15T22:13:58.889Z,7.32
2023-04-15T22:16:27.107Z,7.95
2023-04-15T22:18:55.536Z,9.23
2023-04-15T22:21:22.930Z,9.15
2023-04-15T22:23:51.360Z,9.85
2023-04-15T22:26:18.564Z,9.45
2023-04-15T22:28:46.067Z,9.15
2023-04-15T22:31:14.774Z,8.23
2023-04-15T22:33:42.194Z,8.43
2023-04-15T22:36:09.258Z,7.22
2023-04-15T22:38:36.644Z,7.63
2023-04-15T22:41:03.723Z,6.95
2023-04-15T22:43:31.121Z,7.90
2023-04-15T22:45:58.214Z,6.82
2023-04-15T22:48:25.747Z,7.32
2023-04-15T22:50:53.065Z,6.55
2023-04-15T22:53:20.469Z,6.45
2023-04-15T22:55:48.889Z,6.70
2023-04-15T22:58:17.132Z,6.93
2023-04-15T23:00:44.672Z,6.82
2023-04-15T23:03:12.197Z,7.03
2023-04-15T23:05:45.035Z,6.97
2023-04-15T23:08:12.436Z,7.22
2023-04-15T23:10:40.191Z,7.13
2023-04-15T23:13:07.560Z,6.53
2023-04-15T23:15:34.633Z,7.18
2023-04-15T23:18:02.441Z,7.68
2023-04-15T23:20:29.526Z,7.00
2023-04-15T23:22:56.823Z,7.32
2023-04-15T23:25:24.006Z,7.25
2023-04-15T23:27:51.359Z,7.45
2023-04-15T23:30:18.308Z,7.90
2023-04-15T23:32:45.758Z,7.15
2023-04-15T23:35:12.854Z,8.50
2023-04-15T23:37:40.255Z,7.53
2023-04-15T23:40:07.878Z,8.10
2023-04-15T23:42:35.291Z,8.05
2023-04-15T23:45:02.313Z,8.05
2023-04-15T23:47:30.893Z,8.70
2023-04-15T23:49:58.259Z,8.63
2023-04-15T23:52:25.685Z,8.25
2023-04-15T23:54:52.685Z,8.85
2023-04-15T23:57:20.121Z,9.70
2023-04-15T23:59:47.172Z,10.13
